Aviation Digital Data Service (ADDS)

Output produced by METARs form (0603 UTC 18 January 2018)
found at http://www.aviationweather.gov/adds/metars/
 
EPGD 180600Z 22008KT 9999 FEW015 M01/M02 Q0997 R11/590195
TAF EPGD 180530Z 1806/1906 23010KT 9999 BKN018 
     PROB40 
     TEMPO 1806/1809 3000 -SHSN BKN004 BKN014TCU 
     BECMG 1809/1812 16010KT 
     BECMG 1815/1817 3000 SN SNRA BR BKN006 OVC011 
     PROB40 1816/1824 0800 SN BKN002